createdAt,value
2022-09-04T00:01:57.236Z,100799.81
2022-09-04T00:04:53.952Z,100806.41
2022-09-04T00:07:33.556Z,100815.53
2022-09-04T00:10:19.426Z,100804.69
2022-09-04T00:13:00.034Z,100813.53
2022-09-04T00:15:36.265Z,100809.84
2022-09-04T00:18:14.943Z,100809.09
2022-09-04T00:20:50.389Z,100815.00
2022-09-04T00:23:27.473Z,100814.84
2022-09-04T00:26:07.977Z,100814.72
2022-09-04T00:28:40.365Z,100819.16
2022-09-04T00:31:18.463Z,100824.25
2022-09-04T00:34:03.413Z,100832.03
2022-09-04T00:36:30.766Z,100821.16
2022-09-04T00:39:07.577Z,100818.69
2022-09-04T00:41:56.783Z,100826.47
2022-09-04T00:44:41.054Z,100829.19
2022-09-04T00:47:45.132Z,100830.72
2022-09-04T00:50:46.483Z,100834.50
2022-09-04T00:53:37.544Z,100841.22
2022-09-04T00:57:01.251Z,100834.31
2022-09-04T01:00:00.474Z,100839.19
2022-09-04T01:02:32.987Z,100845.06
2022-09-04T01:05:18.679Z,100839.03
2022-09-04T01:08:12.243Z,100844.06
2022-09-04T01:11:09.855Z,100852.72
2022-09-04T01:13:45.554Z,100848.31
2022-09-04T01:16:19.736Z,100851.72
2022-09-04T01:19:23.786Z,100850.47
2022-09-04T01:22:08.495Z,100854.47
2022-09-04T01:24:57.020Z,100859.53
2022-09-04T01:27:33.099Z,100862.72
2022-09-04T01:30:13.234Z,100859.38
2022-09-04T01:32:53.454Z,100862.53
2022-09-04T01:35:33.046Z,100859.19
2022-09-04T01:38:18.129Z,100855.66
2022-09-04T01:40:56.564Z,100864.03
2022-09-04T01:43:23.716Z,100857.13
2022-09-04T01:46:08.231Z,100861.53
2022-09-04T01:48:51.871Z,100860.91
2022-09-04T01:51:29.565Z,100861.13
2022-09-04T01:54:12.610Z,100848.34
2022-09-04T01:56:48.303Z,100852.13
2022-09-04T01:59:30.181Z,100852.34
2022-09-04T02:02:33.084Z,100847.13
2022-09-04T02:05:09.191Z,100842.09
2022-09-04T02:07:58.891Z,100849.47
2022-09-04T02:10:38.230Z,100842.31
2022-09-04T02:13:08.115Z,100842.56
2022-09-04T02:15:51.254Z,100849.91
2022-09-04T02:18:48.518Z,100852.84
2022-09-04T02:21:38.409Z,100854.06
2022-09-04T02:24:22.533Z,100846.97
2022-09-04T02:27:10.590Z,100847.38
2022-09-04T02:29:52.077Z,100845.94
2022-09-04T02:32:29.096Z,100843.66
2022-09-04T02:35:02.454Z,100844.91
2022-09-04T02:38:23.264Z,100842.88
2022-09-04T02:41:04.430Z,100849.59
2022-09-04T02:43:48.596Z,100843.97
2022-09-04T02:46:34.100Z,100846.25
2022-09-04T02:49:07.727Z,100841.25
2022-09-04T02:51:53.048Z,100846.06
2022-09-04T02:54:48.574Z,100844.03
2022-09-04T02:57:39.475Z,100848.22
2022-09-04T03:00:21.328Z,100856.84
2022-09-04T03:02:59.921Z,100851.00
2022-09-04T03:05:33.290Z,100863.16
2022-09-04T03:08:17.592Z,100868.41
2022-09-04T03:11:06.721Z,100872.41
2022-09-04T03:13:50.768Z,100880.13
2022-09-04T03:16:29.451Z,100881.19
2022-09-04T03:19:10.852Z,100879.13
2022-09-04T03:22:06.675Z,100878.72
2022-09-04T03:24:42.243Z,100879.16
2022-09-04T03:27:12.675Z,100891.31
2022-09-04T03:30:08.490Z,100893.59
2022-09-04T03:32:52.517Z,100895.09
2022-09-04T03:35:38.023Z,100901.97
2022-09-04T03:38:42.342Z,100898.84
2022-09-04T03:41:46.135Z,100895.09
2022-09-04T03:44:59.571Z,100897.59
2022-09-04T03:47:51.590Z,100897.38
2022-09-04T03:50:51.218Z,100901.78
2022-09-04T03:53:46.836Z,100902.19
2022-09-04T03:56:30.593Z,100905.56
2022-09-04T03:59:05.595Z,100908.72
2022-09-04T04:01:56.824Z,100918.97
2022-09-04T04:04:44.104Z,100913.72
2022-09-04T04:07:41.323Z,100914.13
2022-09-04T04:10:39.486Z,100908.06
2022-09-04T04:13:21.713Z,100916.44
2022-09-04T04:15:59.132Z,100906.00
2022-09-04T04:19:03.814Z,100916.00
2022-09-04T04:21:57.708Z,100918.13
2022-09-04T04:24:48.145Z,100925.41
2022-09-04T04:27:36.215Z,100925.66
2022-09-04T04:30:19.530Z,100941.97
2022-09-04T04:33:08.432Z,100938.41
2022-09-04T04:35:49.751Z,100940.28
2022-09-04T04:38:24.929Z,100942.16
2022-09-04T04:41:12.823Z,100943.84
2022-09-04T04:43:48.249Z,100955.75
2022-09-04T04:46:45.346Z,100953.69
2022-09-04T04:49:29.530Z,100952.84
2022-09-04T04:52:26.810Z,100948.22
2022-09-04T04:55:06.381Z,100946.56
2022-09-04T04:57:53.976Z,100947.41
2022-09-04T05:00:27.672Z,100946.56
2022-09-04T05:03:32.333Z,100946.34
2022-09-04T05:06:12.365Z,100948.22
2022-09-04T05:08:54.577Z,100955.34
2022-09-04T05:11:39.831Z,100952.00
2022-09-04T05:14:26.641Z,100954.50
2022-09-04T05:17:02.208Z,100950.94
2022-09-04T05:19:47.380Z,100955.34
2022-09-04T05:22:33.579Z,100954.94
2022-09-04T05:25:29.714Z,100959.97
2022-09-04T05:28:10.473Z,100968.72
2022-09-04T05:30:59.202Z,100973.97
2022-09-04T05:33:32.126Z,100979.22
2022-09-04T05:36:09.802Z,100985.25
2022-09-04T05:39:07.902Z,100993.03
2022-09-04T05:42:07.093Z,100988.22
2022-09-04T05:44:50.315Z,100997.00
2022-09-04T05:47:49.824Z,101000.34
2022-09-04T05:50:53.733Z,101001.00
2022-09-04T05:53:50.999Z,101005.19
2022-09-04T05:56:42.015Z,101013.13
2022-09-04T05:59:26.171Z,101012.69
2022-09-04T06:02:03.693Z,101014.41
2022-09-04T06:04:51.800Z,101015.63
2022-09-04T06:07:29.630Z,101020.69
2022-09-04T06:10:17.175Z,101030.09
2022-09-04T06:13:29.029Z,101030.31
2022-09-04T06:16:09.231Z,101040.19
2022-09-04T06:19:03.073Z,101039.56
2022-09-04T06:21:44.255Z,101040.81
2022-09-04T06:24:16.857Z,101046.25
2022-09-04T06:27:17.036Z,101043.31
2022-09-04T06:30:09.188Z,101048.34
2022-09-04T06:32:55.780Z,101049.78
2022-09-04T06:35:33.049Z,101048.53
2022-09-04T06:38:26.559Z,101041.16
2022-09-04T06:41:30.790Z,101045.75
2022-09-04T06:44:14.733Z,101046.75
2022-09-04T06:47:09.091Z,101048.41
2022-09-04T06:49:59.509Z,101043.91
2022-09-04T06:52:49.390Z,101053.50
2022-09-04T06:55:27.788Z,101055.31
2022-09-04T06:58:23.486Z,101052.31
2022-09-04T07:00:59.896Z,101052.25
2022-09-04T07:03:49.883Z,101052.16
2022-09-04T07:06:29.917Z,101061.06
2022-09-04T07:09:08.263Z,101057.63
2022-09-04T07:11:50.551Z,101061.28
2022-09-04T07:14:49.341Z,101061.41
2022-09-04T07:17:34.609Z,101058.53
2022-09-04T07:20:27.969Z,101062.22
2022-09-04T07:23:32.607Z,101062.31
2022-09-04T07:26:11.361Z,101062.63
2022-09-04T07:29:02.049Z,101071.34
2022-09-04T07:31:37.541Z,101075.22
2022-09-04T07:34:23.983Z,101065.88
2022-09-04T07:37:04.353Z,101074.16
2022-09-04T07:39:46.384Z,101072.78
2022-09-04T07:42:35.181Z,101080.22
2022-09-04T07:45:22.372Z,101077.16
2022-09-04T07:48:12.746Z,101076.59
2022-09-04T07:51:04.670Z,101080.69
2022-09-04T07:53:49.539Z,101080.97
2022-09-04T07:56:35.303Z,101074.91
2022-09-04T07:59:23.833Z,101084.47
2022-09-04T08:02:05.522Z,101070.19
2022-09-04T08:04:49.336Z,101074.88
2022-09-04T08:08:03.794Z,101084.19
2022-09-04T08:11:02.536Z,101086.09
2022-09-04T08:13:56.931Z,101089.06
2022-09-04T08:16:47.129Z,101094.19
2022-09-04T08:19:22.916Z,101092.50
2022-09-04T08:21:52.393Z,101093.25
2022-09-04T08:25:02.889Z,101090.97
2022-09-04T08:27:51.603Z,101097.78
2022-09-04T08:30:22.133Z,101091.91
2022-09-04T08:33:12.950Z,101101.41
2022-09-04T08:35:39.415Z,101101.31
2022-09-04T08:38:21.182Z,101103.16
2022-09-04T08:41:09.458Z,101104.19
2022-09-04T08:44:11.680Z,101104.44
2022-09-04T08:47:01.795Z,101101.63
2022-09-04T08:49:54.144Z,101104.84
2022-09-04T08:52:27.189Z,101098.44
2022-09-04T08:55:14.885Z,101107.38
2022-09-04T08:57:57.697Z,101112.44
2022-09-04T09:00:53.839Z,101101.03
2022-09-04T09:04:02.439Z,101096.59
2022-09-04T09:06:41.050Z,101106.94
2022-09-04T09:09:25.899Z,101114.75
2022-09-04T09:12:17.357Z,101106.06
2022-09-04T09:15:06.096Z,101106.25
2022-09-04T09:17:39.308Z,101104.72
2022-09-04T09:20:29.658Z,101107.88
2022-09-04T09:23:21.236Z,101109.09
2022-09-04T09:26:26.531Z,101100.19
2022-09-04T09:29:23.538Z,101103.09
2022-09-04T09:32:08.126Z,101105.97
2022-09-04T09:35:09.045Z,101104.41
2022-09-04T09:38:09.799Z,101104.53
2022-09-04T09:41:00.457Z,101102.75
2022-09-04T09:44:06.554Z,101108.16
2022-09-04T09:46:46.544Z,101109.91
2022-09-04T09:49:44.118Z,101109.19
2022-09-04T09:52:28.534Z,101100.47
2022-09-04T09:55:16.769Z,101106.56
2022-09-04T09:57:58.507Z,101104.19
2022-09-04T10:00:29.102Z,101107.00
2022-09-04T10:03:18.168Z,101113.09
2022-09-04T10:06:09.587Z,101117.09
2022-09-04T10:08:47.893Z,101116.84
2022-09-04T10:11:53.386Z,101111.69
2022-09-04T10:14:55.736Z,101105.41
2022-09-04T10:17:59.789Z,101103.81
2022-09-04T10:21:10.609Z,101103.06
2022-09-04T10:24:01.175Z,101097.06
2022-09-04T10:26:49.421Z,101098.75
2022-09-04T10:29:29.083Z,101102.66
2022-09-04T10:32:17.171Z,101101.06
2022-09-04T10:34:54.408Z,101091.69
2022-09-04T10:37:35.589Z,101090.09
2022-09-04T10:40:43.284Z,101091.50
2022-09-04T10:43:38.648Z,101085.16
2022-09-04T10:46:26.161Z,101087.72
2022-09-04T10:48:58.563Z,101086.38
2022-09-04T10:51:52.554Z,101089.41
2022-09-04T10:54:54.565Z,101090.81
2022-09-04T10:57:42.407Z,101093.59
2022-09-04T11:00:18.233Z,101096.38
2022-09-04T11:03:03.371Z,101092.25
2022-09-04T11:05:41.293Z,101095.31
2022-09-04T11:08:16.280Z,101088.97
2022-09-04T11:10:48.087Z,101093.66
2022-09-04T11:13:51.643Z,101094.50
2022-09-04T11:16:47.308Z,101081.19
2022-09-04T11:19:23.477Z,101081.75
2022-09-04T11:22:19.932Z,101081.75
2022-09-04T11:25:05.328Z,101080.88
2022-09-04T11:27:42.875Z,101085.56
2022-09-04T11:30:13.227Z,101085.00
2022-09-04T11:33:00.899Z,101084.13
2022-09-04T11:36:08.136Z,101079.41
2022-09-04T11:38:53.994Z,101087.41
2022-09-04T11:41:47.427Z,101081.31
2022-09-04T11:44:40.025Z,101085.19
2022-09-04T11:47:13.599Z,101088.25
2022-09-04T11:49:53.278Z,101088.25
2022-09-04T11:52:26.518Z,101079.63
2022-09-04T11:54:58.658Z,101079.09
2022-09-04T11:57:38.421Z,101077.13
2022-09-04T12:00:15.091Z,101080.97
2022-09-04T12:03:06.818Z,101078.47
2022-09-04T12:05:40.854Z,101078.44
2022-09-04T12:08:07.260Z,101084.22
2022-09-04T12:10:59.508Z,101078.91
2022-09-04T12:14:04.427Z,101079.66
2022-09-04T12:16:52.715Z,101079.06
2022-09-04T12:19:46.273Z,101079.81
2022-09-04T12:22:38.497Z,101083.63
2022-09-04T12:25:10.747Z,101087.72
2022-09-04T12:27:58.642Z,101076.88
2022-09-04T12:30:49.364Z,101082.16
2022-09-04T12:33:43.573Z,101082.69
2022-09-04T12:36:20.902Z,101082.69
2022-09-04T12:38:54.318Z,101083.19
2022-09-04T12:41:48.049Z,101085.94
2022-09-04T12:44:31.546Z,101091.75
2022-09-04T12:47:01.056Z,101088.06
2022-09-04T12:49:37.294Z,101091.44
2022-09-04T12:52:28.769Z,101093.94
2022-09-04T12:55:04.799Z,101103.34
2022-09-04T12:57:40.389Z,101097.25
2022-09-04T13:00:12.474Z,101098.94
2022-09-04T13:02:49.164Z,101100.34
2022-09-04T13:05:34.265Z,101091.25
2022-09-04T13:08:19.590Z,101099.03
2022-09-04T13:11:00.908Z,101099.63
2022-09-04T13:13:42.184Z,101095.47
2022-09-04T13:16:17.562Z,101092.97
2022-09-04T13:18:53.909Z,101095.75
2022-09-04T13:21:23.478Z,101092.16
2022-09-04T13:24:19.599Z,101096.03
2022-09-04T13:27:16.921Z,101096.81
2022-09-04T13:30:05.822Z,101098.72
2022-09-04T13:32:58.498Z,101097.25
2022-09-04T13:35:47.404Z,101094.97
2022-09-04T13:39:01.551Z,101099.34
2022-09-04T13:41:50.619Z,101092.56
2022-09-04T13:44:43.507Z,101096.88
2022-09-04T13:47:15.439Z,101093.44
2022-09-04T13:49:56.468Z,101090.31
2022-09-04T13:52:34.534Z,101088.22
2022-09-04T13:55:14.241Z,101088.09
2022-09-04T13:57:44.662Z,101087.97
2022-09-04T14:00:12.028Z,101095.13
2022-09-04T14:02:39.253Z,101095.88
2022-09-04T14:05:18.721Z,101091.09
2022-09-04T14:07:49.286Z,101094.13
2022-09-04T14:10:34.491Z,101095.38
2022-09-04T14:13:25.616Z,101094.72
2022-09-04T14:16:04.406Z,101097.13
2022-09-04T14:18:45.271Z,101095.09
2022-09-04T14:21:32.451Z,101094.19
2022-09-04T14:24:07.966Z,101092.75
2022-09-04T14:27:04.321Z,101098.25
2022-09-04T14:29:49.089Z,101094.31
2022-09-04T14:32:56.875Z,101099.28
2022-09-04T14:35:46.902Z,101095.69
2022-09-04T14:38:46.048Z,101096.50
2022-09-04T14:41:43.684Z,101096.22
2022-09-04T14:44:30.998Z,101084.78
2022-09-04T14:47:20.978Z,101089.78
2022-09-04T14:49:51.145Z,101087.53
2022-09-04T14:52:23.818Z,101086.91
2022-09-04T14:54:58.092Z,101083.53
2022-09-04T14:57:55.375Z,101089.28
2022-09-04T15:00:29.845Z,101086.22
2022-09-04T15:03:05.539Z,101091.47
2022-09-04T15:05:37.085Z,101088.38
2022-09-04T15:08:07.547Z,101084.78
2022-09-04T15:10:47.523Z,101074.28
2022-09-04T15:13:32.530Z,101080.13
2022-09-04T15:16:13.763Z,101080.22
2022-09-04T15:18:40.731Z,101074.72
2022-09-04T15:21:25.226Z,101084.50
2022-09-04T15:24:17.698Z,101083.94
2022-09-04T15:26:58.265Z,101087.03
2022-09-04T15:29:53.850Z,101089.81
2022-09-04T15:32:26.286Z,101084.25
2022-09-04T15:35:22.923Z,101090.06
2022-09-04T15:38:04.958Z,101088.34
2022-09-04T15:40:54.384Z,101088.03
2022-09-04T15:43:37.610Z,101085.78
2022-09-04T15:46:12.244Z,101074.13
2022-09-04T15:49:07.137Z,101078.94
2022-09-04T15:51:46.105Z,101085.44
2022-09-04T15:54:40.801Z,101087.28
2022-09-04T15:57:17.330Z,101093.53
2022-09-04T15:59:53.330Z,101088.63
2022-09-04T16:02:36.538Z,101086.53
2022-09-04T16:05:54.767Z,101099.16
2022-09-04T16:08:31.791Z,101093.38
2022-09-04T16:11:06.562Z,101090.44
2022-09-04T16:13:38.181Z,101080.81
2022-09-04T16:16:35.873Z,101087.03
2022-09-04T16:19:20.805Z,101096.03
2022-09-04T16:22:00.462Z,101085.56
2022-09-04T16:24:47.506Z,101095.06
2022-09-04T16:27:21.194Z,101087.34
2022-09-04T16:30:02.859Z,101087.50
2022-09-04T16:32:33.560Z,101092.00
2022-09-04T16:35:06.310Z,101096.56
2022-09-04T16:37:59.095Z,101098.31
2022-09-04T16:40:48.668Z,101085.88
2022-09-04T16:43:32.291Z,101085.91
2022-09-04T16:46:07.824Z,101093.16
2022-09-04T16:48:43.675Z,101088.75
2022-09-04T16:51:41.163Z,101097.13
2022-09-04T16:54:17.349Z,101098.28
2022-09-04T16:56:51.066Z,101097.50
2022-09-04T16:59:57.247Z,101105.31
2022-09-04T17:02:37.477Z,101097.06
2022-09-04T17:05:21.387Z,101105.41
2022-09-04T17:08:17.023Z,101116.00
2022-09-04T17:10:50.829Z,101105.75
2022-09-04T17:13:44.063Z,101113.81
2022-09-04T17:16:17.754Z,101108.31
2022-09-04T17:18:52.091Z,101108.31
2022-09-04T17:28:53.986Z,101107.53
2022-09-04T17:28:58.402Z,101117.78
2022-09-04T17:29:13.985Z,101115.34
2022-09-04T17:30:36.259Z,101116.75
2022-09-04T17:36:21.946Z,101120.91
2022-09-04T17:40:41.152Z,101115.97
2022-09-04T17:40:57.004Z,101116.81
2022-09-04T17:42:13.890Z,101120.16
2022-09-04T17:44:53.778Z,101121.00
2022-09-04T17:47:26.922Z,101120.75
2022-09-04T17:49:57.686Z,101120.50
2022-09-04T17:52:33.532Z,101128.50
2022-09-04T17:55:06.019Z,101127.66
2022-09-04T17:57:46.349Z,101123.53
2022-09-04T18:00:24.148Z,101118.84
2022-09-04T18:03:20.888Z,101134.63
2022-09-04T18:05:53.520Z,101134.88
2022-09-04T18:08:32.794Z,101127.94
2022-09-04T18:11:28.960Z,101132.91
2022-09-04T18:14:13.079Z,101141.19
2022-09-04T18:17:12.631Z,101143.91
2022-09-04T18:19:46.585Z,101144.72
2022-09-04T18:22:26.825Z,101147.44
2022-09-04T18:25:16.878Z,101147.97
2022-09-04T18:28:12.984Z,101151.22
2022-09-04T18:37:09.935Z,101156.44
2022-09-04T18:37:15.972Z,101156.38
2022-09-04T18:37:16.620Z,101161.00
2022-09-04T18:39:58.906Z,101165.13
2022-09-04T18:48:17.353Z,101166.44
2022-09-04T18:50:34.463Z,101172.47
2022-09-04T18:50:48.708Z,101171.00
2022-09-04T18:51:21.605Z,101166.78
2022-09-04T18:53:54.174Z,101171.44
2022-09-04T18:56:43.026Z,101175.53
2022-09-04T18:59:16.074Z,101174.66
2022-09-04T19:02:23.006Z,101172.38
2022-09-04T19:04:59.061Z,101188.88
2022-09-04T19:07:47.088Z,101182.75
2022-09-04T19:10:30.063Z,101194.84
2022-09-04T19:13:03.840Z,101187.56
2022-09-04T19:15:36.652Z,101190.25
2022-09-04T19:18:17.495Z,101194.88
2022-09-04T19:20:49.246Z,101195.13
2022-09-04T19:23:28.050Z,101193.38
2022-09-04T19:25:59.089Z,101201.03
2022-09-04T19:28:39.475Z,101198.22
2022-09-04T19:31:19.314Z,101196.22
2022-09-04T19:34:10.680Z,101200.84
2022-09-04T19:36:44.736Z,101199.13
2022-09-04T19:44:58.278Z,101200.97
2022-09-04T19:46:00.358Z,101200.66
2022-09-04T19:46:11.591Z,101197.81
2022-09-04T19:48:28.903Z,101207.69
2022-09-04T19:53:23.950Z,101206.50
2022-09-04T19:54:02.574Z,101204.50
2022-09-04T19:56:29.333Z,101203.38
2022-09-04T19:59:04.415Z,101209.63
2022-09-04T20:02:02.722Z,101214.81
2022-09-04T20:04:43.406Z,101209.25
2022-09-04T20:07:20.498Z,101214.41
2022-09-04T20:09:54.334Z,101212.41
2022-09-04T20:12:28.914Z,101217.00
2022-09-04T20:15:13.750Z,101218.63
2022-09-04T20:18:05.090Z,101222.13
2022-09-04T20:20:48.216Z,101214.88
2022-09-04T20:23:51.881Z,101212.84
2022-09-04T20:26:30.743Z,101208.91
2022-09-04T20:29:07.085Z,101218.19
2022-09-04T20:31:45.129Z,101215.09
2022-09-04T20:34:38.465Z,101215.84
2022-09-04T20:37:11.000Z,101223.78
2022-09-04T20:39:59.404Z,101225.09
2022-09-04T20:42:37.864Z,101224.75
2022-09-04T20:47:51.866Z,101221.91
2022-09-04T20:52:41.685Z,101220.50
2022-09-04T20:52:53.162Z,101222.91
2022-09-04T20:54:08.584Z,101235.25
2022-09-04T20:58:01.386Z,101224.75
2022-09-04T21:03:07.690Z,101229.66
2022-09-04T21:03:35.180Z,101232.91
2022-09-04T21:06:24.393Z,101236.97
2022-09-04T21:09:14.125Z,101233.03
2022-09-04T21:11:44.917Z,101235.47
2022-09-04T21:14:14.119Z,101238.69
2022-09-04T21:17:16.966Z,101240.03
2022-09-04T21:20:10.946Z,101235.81
2022-09-04T21:22:43.589Z,101243.16
2022-09-04T21:25:28.900Z,101243.63
2022-09-04T21:28:18.318Z,101250.47
2022-09-04T21:30:47.550Z,101235.78
2022-09-04T21:33:34.546Z,101239.25
2022-09-04T21:36:26.759Z,101243.56
2022-09-04T21:39:08.800Z,101237.97
2022-09-04T21:42:16.384Z,101245.03
2022-09-04T21:45:12.015Z,101241.09
2022-09-04T21:47:49.894Z,101246.47
2022-09-04T21:50:34.289Z,101243.13
2022-09-04T21:53:31.581Z,101247.47
2022-09-04T21:58:50.960Z,101260.00
2022-09-04T22:02:43.089Z,101252.13
2022-09-04T22:02:45.895Z,101256.06
2022-09-04T22:05:02.280Z,101252.81
2022-09-04T22:11:28.221Z,101249.97
2022-09-04T22:13:38.391Z,101258.09
2022-09-04T22:13:50.691Z,101259.66
2022-09-04T22:16:52.045Z,101262.88
2022-09-04T22:19:49.506Z,101265.25
2022-09-04T22:22:45.709Z,101247.59
2022-09-04T22:25:41.129Z,101255.22
2022-09-04T22:28:32.030Z,101257.38
2022-09-04T22:31:16.775Z,101255.94
2022-09-04T22:34:17.574Z,101261.09
2022-09-04T22:37:21.893Z,101259.44
2022-09-04T22:40:14.066Z,101259.91
2022-09-04T22:42:52.931Z,101257.38
2022-09-04T22:45:51.403Z,101264.19
2022-09-04T22:48:35.372Z,101259.19
2022-09-04T22:51:31.142Z,101255.81
2022-09-04T22:54:40.097Z,101262.63
2022-09-04T22:57:30.023Z,101264.16
2022-09-04T22:59:59.245Z,101262.16
2022-09-04T23:03:06.735Z,101267.03
2022-09-04T23:06:33.823Z,101264.50
2022-09-04T23:13:46.474Z,101259.50
2022-09-04T23:14:01.802Z,101261.03
2022-09-04T23:15:09.580Z,101265.91
2022-09-04T23:17:58.338Z,101261.13
2022-09-04T23:26:32.799Z,101259.69
2022-09-04T23:26:34.641Z,101265.16
2022-09-04T23:27:00.302Z,101268.16
2022-09-04T23:29:49.513Z,101265.28
2022-09-04T23:32:53.952Z,101259.66
2022-09-04T23:35:32.509Z,101255.72
2022-09-04T23:38:20.761Z,101260.00
2022-09-04T23:40:52.014Z,101268.94
2022-09-04T23:43:38.078Z,101263.06
2022-09-04T23:46:15.758Z,101259.13
2022-09-04T23:49:14.598Z,101266.53
2022-09-04T23:51:57.422Z,101268.66
2022-09-04T23:54:29.688Z,101257.31
2022-09-04T23:57:25.768Z,101256.72
